Time;durP1;ratioP1;P1;durP2;ratioP2;P2;SDS_P1;SDS_P2;PMS_P1;PMS_P2;Temp;Humidity;BMP_temperature;BMP_pressure;BME280_temperature;BME280_humidity;BME280_pressure;Samples;Min_cycle;Max_cycle;Signal;HPM_P1;HPM_P2
2023/09/05 00:00:10;;;;;;;3.03;2.10;;;15.20;90.20;;;;;;5058266;28;20223;-84
2023/09/05 00:02:40;;;;;;;3.63;1.90;;;15.20;99.90;;;;;;5059453;28;20231;-84
2023/09/05 00:05:07;;;;;;;4.17;2.30;;;15.20;58.50;;;;;;5058681;28;20185;-84
2023/09/05 00:07:35;;;;;;;3.87;2.20;;;15.10;99.90;;;;;;5058138;28;20201;-84
2023/09/05 00:10:03;;;;;;;3.00;1.90;;;15.20;87.70;;;;;;5059479;28;20184;-84
2023/09/05 00:12:29;;;;;;;2.43;2.23;;;15.20;45.60;;;;;;5059722;28;20691;-84
2023/09/05 00:14:55;;;;;;;2.27;2.00;;;15.10;41.00;;;;;;5057344;28;20182;-84
2023/09/05 00:17:21;;;;;;;2.63;2.23;;;15.00;99.90;;;;;;5060713;28;20212;-84
2023/09/05 00:19:47;;;;;;;3.47;1.90;;;15.10;87.70;;;;;;5059452;28;20191;-84
2023/09/05 00:22:12;;;;;;;2.30;1.90;;;15.00;32.00;;;;;;5060264;28;20201;-85
2023/09/05 00:24:38;;;;;;;2.50;2.00;;;15.00;32.30;;;;;;5058248;28;20208;-84
2023/09/05 00:27:07;;;;;;;3.43;2.10;;;15.00;59.20;;;;;;5059787;28;20236;-84
2023/09/05 00:29:33;;;;;;;2.93;2.33;;;14.90;71.10;;;;;;5058788;28;20323;-86
2023/09/05 00:31:59;;;;;;;3.30;2.30;;;14.90;99.90;;;;;;5058268;28;20244;-84
2023/09/05 00:34:36;;;;;;;2.50;2.10;;;14.70;99.90;;;;;;5059311;28;20168;-85
2023/09/05 00:37:03;;;;;;;2.27;1.90;;;14.70;99.90;;;;;;5057873;28;20177;-84
2023/09/05 00:39:30;;;;;;;3.17;2.30;;;14.70;99.90;;;;;;5059339;28;20181;-83
2023/09/05 00:41:56;;;;;;;4.43;2.20;;;14.70;99.90;;;;;;5058647;28;20220;-85
2023/09/05 00:44:26;;;;;;;2.63;2.10;;;14.70;85.90;;;;;;5057657;28;20213;-84
2023/09/05 00:46:55;;;;;;;2.50;2.10;;;14.70;99.90;;;;;;5057471;28;20205;-84
2023/09/05 00:49:28;;;;;;;3.33;2.10;;;14.70;99.90;;;;;;5057577;28;20177;-85
2023/09/05 00:51:58;;;;;;;2.57;1.70;;;14.80;99.90;;;;;;5059267;28;20189;-84
2023/09/05 00:54:24;;;;;;;4.50;2.30;;;14.80;99.90;;;;;;5059579;28;20262;-84
2023/09/05 00:56:52;;;;;;;4.13;2.10;;;14.80;99.90;;;;;;5057258;28;20177;-84
2023/09/05 00:59:19;;;;;;;4.93;2.10;;;14.80;99.90;;;;;;5058077;28;20247;-85
2023/09/05 01:01:44;;;;;;;3.53;2.27;;;14.70;64.20;;;;;;5058490;28;20212;-84
2023/09/05 01:04:10;;;;;;;4.30;1.83;;;14.60;99.90;;;;;;5059656;28;20178;-86
2023/09/05 01:06:49;;;;;;;3.57;2.20;;;14.60;99.90;;;;;;5057272;28;20225;-84
2023/09/05 01:09:27;;;;;;;2.90;1.97;;;14.60;99.90;;;;;;5057685;28;20176;-85
2023/09/05 01:11:53;;;;;;;2.67;1.90;;;14.70;99.90;;;;;;5057085;28;20574;-85
2023/09/05 01:14:19;;;;;;;2.10;1.90;;;14.60;99.90;;;;;;5059179;28;20200;-83
2023/09/05 01:16:45;;;;;;;3.00;1.97;;;14.60;99.90;;;;;;5058723;28;20174;-86
2023/09/05 01:19:15;;;;;;;2.70;1.80;;;14.60;99.90;;;;;;5057327;28;20193;-85
2023/09/05 01:22:13;;;;;;;2.70;2.00;;;14.60;99.90;;;;;;5057868;28;20256;-85
2023/09/05 01:24:43;;;;;;;2.37;2.00;;;14.40;99.90;;;;;;5059520;28;20292;-85
2023/09/05 01:27:10;;;;;;;3.03;1.73;;;14.40;99.90;;;;;;5056417;28;20201;-84
2023/09/05 01:29:39;;;;;;;2.03;1.83;;;14.30;99.90;;;;;;5058180;28;20174;-82
2023/09/05 01:32:07;;;;;;;7.30;2.07;;;14.30;99.90;;;;;;5057224;28;20196;-85
2023/09/05 01:34:32;;;;;;;2.63;2.43;;;14.30;99.90;;;;;;5059656;28;20173;-84
2023/09/05 01:36:58;;;;;;;3.40;2.10;;;14.30;99.90;;;;;;5059579;28;20178;-85
2023/09/05 01:39:24;;;;;;;2.80;2.00;;;14.20;99.90;;;;;;5059073;28;20177;-84
2023/09/05 01:41:50;;;;;;;5.87;2.20;;;14.20;99.90;;;;;;5056492;28;20196;-86
2023/09/05 01:44:16;;;;;;;3.10;2.00;;;14.20;99.90;;;;;;5059232;28;20169;-84
2023/09/05 01:46:42;;;;;;;2.83;2.03;;;14.30;99.90;;;;;;5058044;28;20197;-86
2023/09/05 01:49:07;;;;;;;2.10;1.80;;;14.20;99.90;;;;;;5057035;28;20182;-84
2023/09/05 01:51:33;;;;;;;4.20;2.30;;;14.30;99.90;;;;;;5057832;28;20193;-84
2023/09/05 01:53:58;;;;;;;4.03;2.10;;;14.00;99.90;;;;;;5059233;28;20197;-84
2023/09/05 01:56:24;;;;;;;2.30;1.97;;;14.10;99.90;;;;;;5057076;28;20178;-86
2023/09/05 01:58:49;;;;;;;2.40;2.20;;;14.00;99.90;;;;;;5057623;28;20182;-84
2023/09/05 02:01:15;;;;;;;2.53;2.00;;;14.10;99.90;;;;;;5056405;28;20269;-84
2023/09/05 02:03:41;;;;;;;4.17;2.30;;;14.20;99.90;;;;;;5058370;28;20193;-85
2023/09/05 02:06:06;;;;;;;2.47;2.00;;;14.20;99.90;;;;;;5057092;28;20572;-84
2023/09/05 02:08:34;;;;;;;3.67;2.20;;;14.30;99.90;;;;;;5057077;28;20169;-85
2023/09/05 02:11:00;;;;;;;2.97;2.20;;;14.20;99.90;;;;;;5056281;28;20174;-85
2023/09/05 02:13:26;;;;;;;3.17;1.97;;;14.20;99.90;;;;;;5056797;28;20193;-84
2023/09/05 02:15:51;;;;;;;2.70;2.13;;;14.30;99.90;;;;;;5059092;28;20173;-84
2023/09/05 02:18:17;;;;;;;2.40;2.00;;;14.30;99.90;;;;;;5062496;28;20178;-86
2023/09/05 02:20:42;;;;;;;3.07;2.10;;;14.20;99.90;;;;;;5061445;28;20636;-84
2023/09/05 02:23:08;;;;;;;2.80;2.10;;;14.20;99.90;;;;;;5062160;28;20178;-84
2023/09/05 02:25:34;;;;;;;2.60;2.10;;;14.20;99.90;;;;;;5060352;28;20186;-83
2023/09/05 02:27:59;;;;;;;4.40;1.93;;;14.20;99.90;;;;;;5060290;28;20692;-86
2023/09/05 02:30:29;;;;;;;2.93;2.00;;;14.20;99.90;;;;;;5062113;28;20182;-85
2023/09/05 02:32:55;;;;;;;4.40;1.80;;;14.20;99.90;;;;;;5059772;28;20224;-84
2023/09/05 02:35:25;;;;;;;3.13;2.10;;;14.20;99.90;;;;;;5059704;28;20593;-84
2023/09/05 02:37:51;;;;;;;3.50;2.17;;;14.20;99.90;;;;;;5060368;28;20231;-85
2023/09/05 02:40:18;;;;;;;5.00;2.00;;;14.10;99.90;;;;;;5060451;28;20268;-84
2023/09/05 02:42:44;;;;;;;2.67;1.83;;;14.00;99.90;;;;;;5062160;28;20205;-84
2023/09/05 02:45:10;;;;;;;3.97;2.10;;;14.00;99.90;;;;;;5062580;28;20200;-84
2023/09/05 02:47:36;;;;;;;2.27;2.07;;;14.00;99.90;;;;;;5061807;28;20735;-84
2023/09/05 02:50:02;;;;;;;3.53;2.03;;;14.00;99.90;;;;;;5061193;28;20184;-84
2023/09/05 02:52:29;;;;;;;3.53;2.20;;;13.90;99.90;;;;;;5059334;28;20550;-84
2023/09/05 02:54:54;;;;;;;3.10;1.90;;;13.90;99.90;;;;;;5060279;28;20181;-85
2023/09/05 02:57:21;;;;;;;2.33;2.00;;;13.70;99.90;;;;;;5059485;28;20254;-84
2023/09/05 02:59:47;;;;;;;4.37;2.17;;;13.70;99.90;;;;;;5059139;28;20193;-86
2023/09/05 03:02:12;;;;;;;2.90;1.70;;;13.60;99.90;;;;;;5061742;28;20688;-84
2023/09/05 03:04:39;;;;;;;2.73;2.00;;;13.60;99.90;;;;;;5061629;28;20173;-84
2023/09/05 03:07:05;;;;;;;2.43;1.83;;;13.40;99.90;;;;;;5061153;28;20543;-86
2023/09/05 03:09:33;;;;;;;2.47;1.80;;;13.40;99.90;;;;;;5059096;28;20256;-85
2023/09/05 03:11:59;;;;;;;2.23;2.00;;;13.40;99.90;;;;;;5060466;28;20201;-84
2023/09/05 03:14:25;;;;;;;1.80;1.60;;;13.50;99.90;;;;;;5061314;28;20170;-84
2023/09/05 03:16:50;;;;;;;2.23;1.80;;;13.60;99.90;;;;;;5061807;28;20224;-84
2023/09/05 03:19:16;;;;;;;2.10;1.90;;;13.60;99.90;;;;;;5059427;28;20178;-85
2023/09/05 03:21:41;;;;;;;2.87;2.30;;;13.70;99.90;;;;;;5058566;28;20288;-87
2023/09/05 03:24:07;;;;;;;2.80;2.20;;;13.70;99.90;;;;;;5061405;28;20178;-84
2023/09/05 03:26:33;;;;;;;5.53;2.20;;;13.80;99.90;;;;;;5061134;28;20204;-84
2023/09/05 03:28:59;;;;;;;2.63;2.20;;;13.70;99.90;;;;;;5060394;28;20177;-84
2023/09/05 03:31:28;;;;;;;2.70;2.30;;;13.80;99.90;;;;;;5061059;28;20563;-84
2023/09/05 03:33:54;;;;;;;3.10;2.30;;;13.70;99.90;;;;;;5061726;28;20180;-84
2023/09/05 03:36:21;;;;;;;3.83;2.13;;;13.80;99.90;;;;;;5058656;28;20646;-86
2023/09/05 03:38:47;;;;;;;2.20;2.00;;;13.70;99.90;;;;;;5061373;28;20165;-84
2023/09/05 03:41:13;;;;;;;2.43;2.23;;;13.70;99.90;;;;;;5060374;28;20563;-84
2023/09/05 03:43:38;;;;;;;2.37;2.17;;;13.60;99.90;;;;;;5058745;28;20196;-86
2023/09/05 03:46:04;;;;;;;3.07;2.10;;;13.60;99.90;;;;;;5059081;28;20248;-84
2023/09/05 03:48:29;;;;;;;2.93;2.20;;;13.60;99.90;;;;;;5058492;28;20181;-84
2023/09/05 03:50:55;;;;;;;2.30;2.10;;;13.60;99.90;;;;;;5060265;28;20202;-84
2023/09/05 03:53:21;;;;;;;3.20;2.50;;;13.60;99.90;;;;;;5058082;28;20667;-85
2023/09/05 03:55:47;;;;;;;2.57;2.13;;;13.60;99.90;;;;;;5060511;28;20200;-84
2023/09/05 03:58:13;;;;;;;3.80;2.33;;;13.60;99.90;;;;;;5060519;28;20201;-86
2023/09/05 04:00:39;;;;;;;2.77;2.23;;;13.60;99.90;;;;;;5059948;28;20573;-84
2023/09/05 04:03:04;;;;;;;3.83;2.13;;;13.70;99.90;;;;;;5054144;22;20253;-85
2023/09/05 04:05:33;;;;;;;3.97;2.40;;;13.70;99.90;;;;;;5032210;28;20550;-85
2023/09/05 04:07:59;;;;;;;3.63;2.23;;;13.70;99.90;;;;;;5033504;28;20210;-84
2023/09/05 04:10:24;;;;;;;2.60;2.40;;;13.50;99.90;;;;;;5032283;28;20178;-85
2023/09/05 04:12:50;;;;;;;2.60;2.37;;;13.60;99.90;;;;;;5033280;28;20265;-86
2023/09/05 04:15:20;;;;;;;2.77;2.37;;;13.50;99.90;;;;;;5033202;28;20168;-86
2023/09/05 04:17:47;;;;;;;3.90;2.43;;;13.40;99.90;;;;;;5031899;28;20180;-87
2023/09/05 04:20:13;;;;;;;4.40;2.30;;;13.50;99.90;;;;;;5032572;28;20182;-86
2023/09/05 04:22:39;;;;;;;3.97;2.50;;;13.50;99.90;;;;;;5032126;28;20194;-86
2023/09/05 04:25:06;;;;;;;3.17;2.57;;;13.50;99.90;;;;;;5032133;28;20174;-86
2023/09/05 04:27:31;;;;;;;3.63;2.03;;;13.50;99.90;;;;;;5031867;28;20194;-86
2023/09/05 04:29:57;;;;;;;3.87;2.20;;;13.50;99.90;;;;;;5031362;28;20547;-87
2023/09/05 04:32:30;;;;;;;3.27;2.50;;;13.40;99.90;;;;;;5032161;28;20182;-87
2023/09/05 04:35:01;;;;;;;3.50;2.30;;;13.40;99.90;;;;;;5033201;28;20555;-87
2023/09/05 04:37:27;;;;;;;4.77;2.37;;;13.40;99.90;;;;;;5031972;28;20178;-87
2023/09/05 04:39:54;;;;;;;3.77;2.20;;;13.30;99.90;;;;;;5030182;28;20175;-87
2023/09/05 04:42:20;;;;;;;2.50;2.27;;;13.30;99.90;;;;;;5032867;28;20691;-87
2023/09/05 04:44:46;;;;;;;4.27;2.30;;;13.30;99.90;;;;;;5032719;28;20174;-85
2023/09/05 04:47:27;;;;;;;3.13;2.07;;;13.30;99.90;;;;;;5032801;28;20206;-86
2023/09/05 04:49:55;;;;;;;2.87;2.20;;;13.30;99.90;;;;;;5030803;28;20253;-86
2023/09/05 04:52:22;;;;;;;3.43;2.20;;;13.30;99.90;;;;;;5033236;28;20193;-87
2023/09/05 04:54:48;;;;;;;4.00;2.23;;;13.30;99.90;;;;;;5032785;28;20252;-87
2023/09/05 04:57:16;;;;;;;4.27;2.57;;;13.30;99.90;;;;;;5031362;28;20210;-88
2023/09/05 04:59:47;;;;;;;13.87;5.53;;;13.40;99.90;;;;;;5031942;28;20198;-85
2023/09/05 05:02:13;;;;;;;27.87;9.10;;;13.40;99.90;;;;;;5032759;28;20222;-83
2023/09/05 05:04:40;;;;;;;62.23;16.70;;;14.60;99.90;;;;;;5032383;28;20186;-82
2023/09/05 05:07:07;;;;;;;29.37;10.87;;;15.80;99.90;;;;;;5033940;28;20202;-85
2023/09/05 05:09:33;;;;;;;10.17;4.00;;;16.70;99.90;;;;;;5032310;28;20175;-87
2023/09/05 05:12:00;;;;;;;13.97;5.13;;;17.20;99.90;;;;;;5030489;28;20194;-87
2023/09/05 05:14:25;;;;;;;10.87;3.87;;;16.70;99.90;;;;;;5031199;28;20178;-85
2023/09/05 05:16:51;;;;;;;10.07;4.03;;;16.50;99.90;;;;;;5032406;28;20637;-85
2023/09/05 05:19:16;;;;;;;4.80;3.00;;;16.30;99.90;;;;;;5032231;28;20273;-85
2023/09/05 05:21:42;;;;;;;6.17;3.30;;;16.10;99.90;;;;;;5030615;28;20205;-85
2023/09/05 05:24:08;;;;;;;4.70;2.33;;;15.90;99.90;;;;;;5030901;28;20220;-85
2023/09/05 05:26:34;;;;;;;6.63;2.70;;;16.00;99.90;;;;;;5032060;28;20195;-85
2023/09/05 05:28:59;;;;;;;3.20;2.20;;;15.90;99.90;;;;;;5032179;28;20228;-85
2023/09/05 05:31:26;;;;;;;4.77;1.90;;;15.90;99.90;;;;;;5031659;28;20273;-86
2023/09/05 05:33:52;;;;;;;3.40;2.20;;;15.80;99.90;;;;;;5030651;28;20633;-85
2023/09/05 05:36:18;;;;;;;6.17;2.93;;;15.70;99.90;;;;;;5030770;28;20232;-85
2023/09/05 05:38:44;;;;;;;4.33;2.77;;;15.90;99.90;;;;;;5030794;28;20171;-83
2023/09/05 05:41:09;;;;;;;5.00;2.47;;;16.20;99.90;;;;;;5031453;28;20166;-86
2023/09/05 05:43:36;;;;;;;4.27;2.30;;;16.00;99.90;;;;;;5031714;28;20300;-88
2023/09/05 05:46:01;;;;;;;3.60;2.20;;;16.10;1.00;;;;;;5032071;28;20254;-86
2023/09/05 05:48:27;;;;;;;2.93;2.10;;;15.50;1.00;;;;;;5032058;28;20359;-86
2023/09/05 05:50:53;;;;;;;2.50;2.23;;;15.00;99.10;;;;;;5030192;28;20166;-87
2023/09/05 05:53:22;;;;;;;2.60;2.33;;;14.70;99.90;;;;;;5034888;28;20662;-87
2023/09/05 05:55:47;;;;;;;2.40;2.20;;;14.30;99.90;;;;;;5034951;28;20170;-85
2023/09/05 05:58:15;;;;;;;2.93;2.20;;;14.20;99.90;;;;;;5036476;28;20261;-83
2023/09/05 06:00:50;;;;;;;3.67;2.33;;;14.10;99.90;;;;;;5035216;28;20180;-82
2023/09/05 06:03:17;;;;;;;3.50;2.67;;;14.40;99.90;;;;;;5034302;28;20209;-81
2023/09/05 06:05:44;;;;;;;2.97;1.97;;;14.60;99.90;;;;;;5034648;28;20175;-84
2023/09/05 06:08:09;;;;;;;3.83;2.10;;;14.80;99.90;;;;;;5035541;28;20194;-83
2023/09/05 06:10:35;;;;;;;2.93;2.10;;;14.90;99.90;;;;;;5035063;28;20171;-84
2023/09/05 06:13:01;;;;;;;2.70;2.10;;;15.00;99.90;;;;;;5033448;28;20691;-84
2023/09/05 06:15:26;;;;;;;3.37;2.07;;;15.00;99.90;;;;;;5034024;28;20253;-84
2023/09/05 06:17:52;;;;;;;2.63;2.20;;;14.80;99.90;;;;;;5034136;28;20175;-84
2023/09/05 06:20:19;;;;;;;2.50;2.30;;;14.60;99.90;;;;;;5033053;28;20192;-83
2023/09/05 06:22:44;;;;;;;2.73;2.40;;;14.70;99.90;;;;;;5034421;28;20194;-84
2023/09/05 06:25:10;;;;;;;3.20;2.47;;;14.70;99.90;;;;;;5032880;28;20622;-84
2023/09/05 06:27:36;;;;;;;3.07;2.40;;;14.60;99.90;;;;;;5033417;28;20202;-84
2023/09/05 06:30:03;;;;;;;4.60;2.87;;;14.70;99.90;;;;;;5034465;28;20181;-84
2023/09/05 06:32:29;;;;;;;3.67;2.57;;;14.70;99.90;;;;;;5033917;28;20287;-84
2023/09/05 06:34:55;;;;;;;3.07;2.57;;;14.80;99.90;;;;;;5034090;28;20665;-84
2023/09/05 06:37:28;;;;;;;3.00;2.60;;;14.90;99.90;;;;;;5035140;28;20174;-84
2023/09/05 06:39:54;;;;;;;3.60;2.90;;;15.00;99.90;;;;;;5034580;28;20178;-83
2023/09/05 06:42:20;;;;;;;3.37;2.60;;;15.00;99.90;;;;;;5033647;28;20195;-84
2023/09/05 06:44:46;;;;;;;4.10;2.67;;;15.10;99.90;;;;;;5036395;28;20197;-84
2023/09/05 06:47:11;;;;;;;3.73;2.77;;;15.20;99.90;;;;;;5036488;28;20206;-84
2023/09/05 06:49:37;;;;;;;3.83;2.80;;;15.30;99.90;;;;;;5034617;28;20177;-83
2023/09/05 06:52:03;;;;;;;4.23;2.63;;;15.40;99.90;;;;;;5033644;28;20183;-84
2023/09/05 06:54:28;;;;;;;3.80;2.60;;;15.40;99.90;;;;;;5035180;28;20233;-84
2023/09/05 06:56:54;;;;;;;3.03;2.53;;;15.60;99.90;;;;;;5033534;28;20170;-84
2023/09/05 06:59:19;;;;;;;2.50;2.30;;;15.70;99.90;;;;;;5033347;28;20182;-84
2023/09/05 07:01:45;;;;;;;3.47;2.67;;;15.80;99.90;;;;;;5032708;28;20229;-84
2023/09/05 07:04:11;;;;;;;3.33;2.80;;;15.90;99.90;;;;;;5032462;28;20256;-84
2023/09/05 07:06:39;;;;;;;4.03;3.00;;;16.10;99.90;;;;;;5033568;28;20688;-84
2023/09/05 07:09:06;;;;;;;5.80;2.93;;;16.20;99.90;;;;;;5034587;28;20193;-84
2023/09/05 07:11:32;;;;;;;3.07;2.77;;;16.40;99.90;;;;;;5032603;28;20197;-84
2023/09/05 07:13:58;;;;;;;3.67;2.77;;;16.50;99.90;;;;;;5032881;28;20171;-84
2023/09/05 07:16:23;;;;;;;4.33;2.80;;;16.60;99.90;;;;;;5031942;28;20167;-84
2023/09/05 07:18:49;;;;;;;3.73;2.50;;;16.70;99.90;;;;;;5032479;28;20217;-84
2023/09/05 07:21:15;;;;;;;4.27;2.90;;;16.80;99.90;;;;;;5032141;28;20178;-84
2023/09/05 07:23:40;;;;;;;3.97;2.70;;;17.00;99.90;;;;;;5034217;28;20665;-84
2023/09/05 07:26:07;;;;;;;4.47;2.57;;;17.10;99.90;;;;;;5033266;28;20248;-84
2023/09/05 07:28:33;;;;;;;5.30;2.30;;;17.30;99.90;;;;;;5033017;28;20198;-84
2023/09/05 07:31:00;;;;;;;3.37;2.60;;;17.50;99.90;;;;;;5032356;28;20253;-84
2023/09/05 07:33:26;;;;;;;3.10;2.47;;;17.70;99.90;;;;;;5032891;28;20200;-84
2023/09/05 07:35:51;;;;;;;3.50;2.53;;;17.90;99.90;;;;;;5033275;28;20166;-84
2023/09/05 07:38:20;;;;;;;3.30;2.37;;;18.00;99.90;;;;;;5032601;28;20216;-84
2023/09/05 07:41:00;;;;;;;3.77;2.40;;;18.10;99.90;;;;;;5032258;28;20167;-84
2023/09/05 07:43:25;;;;;;;3.10;2.20;;;18.30;99.90;;;;;;5032462;28;20201;-84
2023/09/05 07:45:51;;;;;;;3.03;2.40;;;18.40;99.90;;;;;;5032599;28;20289;-84
2023/09/05 07:48:17;;;;;;;2.60;2.40;;;18.70;99.90;;;;;;5033752;28;20289;-84
2023/09/05 07:50:42;;;;;;;3.87;2.47;;;18.80;99.90;;;;;;5032033;28;20239;-84
2023/09/05 07:53:08;;;;;;;4.53;2.43;;;18.90;99.90;;;;;;5032393;28;20186;-84
2023/09/05 07:55:33;;;;;;;2.67;2.27;;;19.10;93.20;;;;;;5033619;28;20261;-84
2023/09/05 07:57:59;;;;;;;4.13;2.20;;;19.20;13.80;;;;;;5033472;28;20217;-84
2023/09/05 08:00:27;;;;;;;3.93;2.23;;;19.30;1.00;;;;;;5033202;28;20178;-84
2023/09/05 08:02:53;;;;;;;4.87;2.20;;;19.40;1.00;;;;;;5032095;28;20206;-84
2023/09/05 08:05:19;;;;;;;2.40;2.20;;;19.50;1.00;;;;;;5032158;28;20269;-84
2023/09/05 08:07:45;;;;;;;2.70;2.20;;;19.60;1.00;;;;;;5032302;28;20395;-84
2023/09/05 08:10:11;;;;;;;2.53;1.77;;;19.80;1.00;;;;;;5031675;28;20201;-84
2023/09/05 08:12:37;;;;;;;3.25;1.90;;;20.00;1.00;;;;;;5033197;28;20201;-84
2023/09/05 08:15:07;;;;;;;2.67;2.10;;;20.20;1.00;;;;;;5033148;28;20174;-84
2023/09/05 08:17:33;;;;;;;2.08;1.80;;;20.40;22.90;;;;;;5032119;28;20185;-84
2023/09/05 08:20:00;;;;;;;2.30;1.90;;;20.60;1.00;;;;;;5031726;28;20202;-84
2023/09/05 08:22:26;;;;;;;2.97;1.90;;;20.80;1.00;;;;;;5031882;28;20252;-84
2023/09/05 08:24:52;;;;;;;2.55;1.80;;;20.90;1.00;;;;;;5033191;28;20183;-84
2023/09/05 08:27:19;;;;;;;2.35;1.60;;;21.00;1.00;;;;;;5032891;28;20244;-83
2023/09/05 08:29:45;;;;;;;2.22;1.77;;;21.10;99.90;;;;;;5032430;28;20167;-83
2023/09/05 08:32:11;;;;;;;2.33;1.73;;;21.30;1.00;;;;;;5031772;28;20190;-84
2023/09/05 08:34:40;;;;;;;2.35;1.88;;;21.40;1.00;;;;;;5032877;28;20194;-84
2023/09/05 08:37:06;;;;;;;2.22;1.70;;;21.50;99.90;;;;;;5030872;28;20212;-84
2023/09/05 08:39:32;;;;;;;2.40;1.90;;;21.60;99.90;;;;;;5032906;28;20270;-83
2023/09/05 08:41:57;;;;;;;1.63;1.52;;;21.80;1.00;;;;;;5032237;28;20190;-84
2023/09/05 08:44:23;;;;;;;1.60;1.50;;;21.90;1.00;;;;;;5032938;28;20526;-83
2023/09/05 08:46:51;;;;;;;2.25;1.70;;;21.90;99.90;;;;;;5032526;28;20206;-84
2023/09/05 08:49:16;;;;;;;2.67;1.65;;;22.00;1.00;;;;;;5031544;28;20260;-83
2023/09/05 08:51:44;;;;;;;3.15;1.70;;;22.10;99.90;;;;;;5031813;28;20289;-83
2023/09/05 08:54:15;;;;;;;1.80;1.70;;;22.30;1.00;;;;;;5032837;28;20190;-83
2023/09/05 08:56:41;;;;;;;1.90;1.70;;;22.30;1.00;;;;;;5031516;28;20178;-83
2023/09/05 08:59:08;;;;;;;1.70;1.60;;;22.40;1.00;;;;;;5031183;28;20185;-83
2023/09/05 09:01:35;;;;;;;2.10;1.70;;;22.30;1.00;;;;;;5030500;28;20201;-83
2023/09/05 09:04:01;;;;;;;1.50;1.40;;;22.40;1.00;;;;;;5031197;28;20533;-83
2023/09/05 09:06:27;;;;;;;3.28;1.85;;;22.50;1.00;;;;;;5032244;28;20170;-84
2023/09/05 09:08:53;;;;;;;2.08;1.70;;;22.50;1.00;;;;;;5031677;28;20166;-83
2023/09/05 09:11:20;;;;;;;1.60;1.50;;;22.60;1.00;;;;;;5032617;28;20194;-83
2023/09/05 09:13:56;;;;;;;1.70;1.60;;;22.80;1.00;;;;;;5031058;28;20185;-83
2023/09/05 09:16:22;;;;;;;2.22;1.60;;;23.00;1.00;;;;;;5031195;28;20178;-83
2023/09/05 09:18:48;;;;;;;1.95;1.60;;;23.00;1.00;;;;;;5032214;28;20197;-83
2023/09/05 09:21:20;;;;;;;1.90;1.60;;;23.20;1.00;;;;;;5030556;28;20228;-83
2023/09/05 09:23:45;;;;;;;1.55;1.45;;;23.30;1.00;;;;;;5031150;28;20249;-83
2023/09/05 09:26:13;;;;;;;2.53;1.70;;;23.20;99.90;;;;;;5030283;28;20175;-83
2023/09/05 09:28:39;;;;;;;2.30;1.40;;;23.30;1.00;;;;;;5031961;28;20216;-83
2023/09/05 09:31:11;;;;;;;1.83;1.58;;;23.60;99.90;;;;;;5030396;28;20242;-83
2023/09/05 09:33:36;;;;;;;2.17;1.80;;;23.40;99.90;;;;;;5032096;28;20184;-83
2023/09/05 09:36:10;;;;;;;1.70;1.60;;;23.40;99.90;;;;;;5031707;28;20170;-83
2023/09/05 09:38:36;;;;;;;1.90;1.80;;;23.50;99.90;;;;;;5032173;28;20205;-84
2023/09/05 09:41:03;;;;;;;2.10;1.50;;;23.70;99.90;;;;;;5030250;28;20178;-83
2023/09/05 09:43:30;;;;;;;2.97;1.67;;;23.80;99.90;;;;;;5030550;28;20194;-84
2023/09/05 09:46:00;;;;;;;2.15;1.90;;;23.80;99.90;;;;;;5030675;28;20193;-84
2023/09/05 09:48:28;;;;;;;2.45;1.77;;;23.80;99.90;;;;;;5030868;28;20209;-84
2023/09/05 09:50:59;;;;;;;1.70;1.60;;;23.90;99.90;;;;;;5031526;28;20166;-84
2023/09/05 09:53:30;;;;;;;1.80;1.60;;;23.90;99.90;;;;;;5031930;28;20232;-84
2023/09/05 09:55:57;;;;;;;3.53;1.50;;;24.10;99.90;;;;;;5031700;28;20219;-84
2023/09/05 09:58:25;;;;;;;1.63;1.52;;;24.30;99.90;;;;;;5030636;28;20174;-83
2023/09/05 10:00:51;;;;;;;2.35;1.67;;;24.10;99.90;;;;;;5031416;28;20185;-83
2023/09/05 10:03:18;;;;;;;3.55;1.60;;;24.10;99.90;;;;;;5031670;28;20217;-84
2023/09/05 10:05:44;;;;;;;2.92;1.70;;;24.20;99.90;;;;;;5030615;28;20179;-84
2023/09/05 10:08:11;;;;;;;1.73;1.50;;;24.30;99.90;;;;;;5031616;28;20198;-84
2023/09/05 10:10:40;;;;;;;1.60;1.50;;;24.60;99.90;;;;;;5031040;28;20190;-84
2023/09/05 10:13:08;;;;;;;2.35;1.83;;;24.80;99.90;;;;;;5030324;28;20583;-84
2023/09/05 10:15:36;;;;;;;2.05;1.30;;;24.90;1.00;;;;;;5030592;28;20177;-84
2023/09/05 10:18:02;;;;;;;2.55;1.70;;;25.20;99.90;;;;;;5030601;28;20281;-84
2023/09/05 10:20:30;;;;;;;1.95;1.27;;;25.20;1.00;;;;;;5031024;28;20175;-84
2023/09/05 10:22:55;;;;;;;2.17;1.70;;;25.10;1.00;;;;;;5030550;28;20268;-84
2023/09/05 10:25:22;;;;;;;1.95;1.30;;;25.10;1.00;;;;;;5030282;28;20679;-83
2023/09/05 10:27:49;;;;;;;1.50;1.40;;;25.00;1.00;;;;;;5031865;28;20197;-83
2023/09/05 10:30:14;;;;;;;2.38;1.60;;;25.00;1.00;;;;;;5030648;28;20254;-83
2023/09/05 10:32:44;;;;;;;1.92;1.50;;;25.10;22.90;;;;;;5034771;28;20278;-83
2023/09/05 10:35:15;;;;;;;1.85;1.50;;;25.20;1.00;;;;;;5031274;28;20250;-83
2023/09/05 10:38:04;;;;;;;1.60;1.50;;;25.30;99.90;;;;;;5033014;28;20182;-83
2023/09/05 10:40:33;;;;;;;4.10;1.50;;;25.40;1.00;;;;;;5033048;28;20256;-83
2023/09/05 10:43:01;;;;;;;2.70;1.55;;;25.30;1.00;;;;;;5033830;28;20201;-83
2023/09/05 10:45:27;;;;;;;2.05;1.80;;;25.20;1.00;;;;;;5035654;28;20178;-83
2023/09/05 10:47:59;;;;;;;3.53;1.60;;;25.30;1.00;;;;;;5034398;28;20692;-83
2023/09/05 10:50:25;;;;;;;1.85;1.65;;;25.50;1.00;;;;;;5034001;28;20167;-82
2023/09/05 10:53:11;;;;;;;2.42;1.67;;;25.40;1.00;;;;;;5034768;28;20320;-83
2023/09/05 10:55:46;;;;;;;2.33;1.50;;;25.50;1.00;;;;;;5035550;28;20170;-82
2023/09/05 10:58:43;;;;;;;1.70;1.60;;;25.40;1.00;;;;;;5033894;28;20173;-82
2023/09/05 11:01:29;;;;;;;1.85;1.50;;;25.40;99.90;;;;;;5034537;28;20173;-84
2023/09/05 11:03:55;;;;;;;1.95;1.50;;;25.50;64.50;;;;;;5026526;28;20198;-83
2023/09/05 11:06:22;;;;;;;2.42;1.63;;;25.80;1.00;;;;;;5034042;28;20178;-84
2023/09/05 11:09:04;;;;;;;2.65;1.70;;;26.10;99.90;;;;;;5033548;28;20780;-83
2023/09/05 11:11:30;;;;;;;2.50;1.63;;;26.20;1.00;;;;;;5033147;28;20194;-83
2023/09/05 11:13:57;;;;;;;1.90;1.70;;;26.50;1.00;;;;;;5034847;28;20229;-83
2023/09/05 11:16:22;;;;;;;1.98;1.60;;;26.80;34.50;;;;;;5033676;28;20166;-83
2023/09/05 11:18:55;;;;;;;2.95;1.63;;;27.00;1.00;;;;;;5033750;28;20178;-83
2023/09/05 11:21:22;;;;;;;1.75;1.52;;;27.00;1.00;;;;;;5034396;28;20240;-83
2023/09/05 11:23:52;;;;;;;4.93;3.38;;;27.10;1.00;;;;;;5034857;28;20249;-83
2023/09/05 11:26:18;;;;;;;5.28;4.78;;;27.30;1.00;;;;;;5033606;28;20170;-83
2023/09/05 11:28:48;;;;;;;1.60;1.50;;;27.30;1.00;;;;;;5033464;28;20202;-83
2023/09/05 11:31:18;;;;;;;2.10;1.90;;;27.30;1.00;;;;;;5034318;28;20174;-84
2023/09/05 11:33:47;;;;;;;2.95;1.60;;;27.40;1.00;;;;;;5034996;28;20175;-83
2023/09/05 11:36:13;;;;;;;2.10;1.60;;;27.50;1.00;;;;;;5033385;28;20174;-83
2023/09/05 11:38:49;;;;;;;1.80;1.70;;;27.70;1.00;;;;;;5033353;28;20664;-83
2023/09/05 11:41:16;;;;;;;2.47;1.50;;;28.00;1.00;;;;;;5032820;28;20589;-83
2023/09/05 11:43:52;;;;;;;1.60;1.50;;;28.30;1.00;;;;;;5034829;28;20205;-82
2023/09/05 11:46:19;;;;;;;1.50;1.40;;;28.20;1.00;;;;;;5035096;28;20253;-82
2023/09/05 11:48:47;;;;;;;1.58;1.48;;;28.10;1.00;;;;;;5029289;28;20286;-80
2023/09/05 11:51:14;;;;;;;4.63;1.60;;;28.30;1.00;;;;;;5031936;28;20202;-81
2023/09/05 11:53:44;;;;;;;2.35;1.50;;;28.00;1.00;;;;;;5033686;28;20284;-81
2023/09/05 11:56:10;;;;;;;1.50;1.40;;;28.00;1.00;;;;;;5033673;28;20175;-81
2023/09/05 11:58:37;;;;;;;1.67;1.58;;;28.20;1.00;;;;;;5033187;28;20178;-81
2023/09/05 12:01:02;;;;;;;1.92;1.60;;;28.50;1.00;;;;;;5032805;28;20245;-82
2023/09/05 12:03:38;;;;;;;1.73;1.63;;;28.70;1.00;;;;;;5033500;28;20321;-82
2023/09/05 12:06:04;;;;;;;1.55;1.40;;;28.90;1.00;;;;;;5033714;28;20166;-82
2023/09/05 12:08:30;;;;;;;1.95;1.70;;;29.00;1.00;;;;;;5034470;28;20194;-82
2023/09/05 12:10:57;;;;;;;2.42;1.60;;;29.10;1.00;;;;;;5034068;28;20603;-81
2023/09/05 12:13:39;;;;;;;2.47;1.40;;;29.40;1.00;;;;;;5034558;28;20245;-82
2023/09/05 12:16:09;;;;;;;1.55;1.40;;;29.60;1.00;;;;;;5034400;28;20174;-81
2023/09/05 12:18:34;;;;;;;2.97;1.65;;;29.70;1.00;;;;;;5033128;28;20206;-81
2023/09/05 12:21:00;;;;;;;1.80;1.50;;;29.70;1.00;;;;;;5032456;28;20206;-81
2023/09/05 12:23:26;;;;;;;2.00;1.55;;;29.70;1.00;;;;;;5032783;28;20306;-81
2023/09/05 12:25:54;;;;;;;1.70;1.60;;;30.00;1.00;;;;;;5032752;28;20174;-81
2023/09/05 12:28:22;;;;;;;2.08;1.60;;;30.00;1.00;;;;;;5032091;28;20287;-83
2023/09/05 12:30:48;;;;;;;2.15;1.73;;;30.00;1.00;;;;;;5030465;28;20175;-83
2023/09/05 12:33:15;;;;;;;2.08;1.65;;;30.00;99.90;;;;;;5030955;28;20615;-83
2023/09/05 12:35:42;;;;;;;1.88;1.45;;;29.50;99.90;;;;;;5032343;28;20170;-83
2023/09/05 12:38:09;;;;;;;1.80;1.50;;;29.60;1.00;;;;;;5033142;28;20242;-82
2023/09/05 12:40:35;;;;;;;1.67;1.58;;;29.40;99.90;;;;;;5031445;28;20178;-82
2023/09/05 12:43:02;;;;;;;2.17;1.55;;;29.60;1.00;;;;;;5031946;28;20198;-82
2023/09/05 12:45:28;;;;;;;1.65;1.40;;;29.60;99.90;;;;;;5032134;28;20179;-80
2023/09/05 12:47:54;;;;;;;3.88;1.60;;;29.80;99.90;;;;;;5033927;28;20248;-79